createdAt,value
2022-12-24T00:03:19.273Z,1010.1
2022-12-24T00:18:15.212Z,1010.3
2022-12-24T00:33:11.061Z,1010.3
2022-12-24T00:48:06.816Z,1010.2
2022-12-24T01:03:03.283Z,1010.3
2022-12-24T01:17:59.690Z,1010.5
2022-12-24T01:32:56.307Z,1010.8
2022-12-24T01:47:52.699Z,1010.8
2022-12-24T02:02:48.868Z,1011
2022-12-24T02:17:44.874Z,1011.2
2022-12-24T02:32:40.881Z,1011.4
2022-12-24T02:47:36.666Z,1011.5
2022-12-24T03:02:32.916Z,1011.6
2022-12-24T03:17:29.315Z,1011.6
2022-12-24T03:32:25.301Z,1011.7
2022-12-24T03:47:21.735Z,1011.8
2022-12-24T04:02:18.478Z,1012
2022-12-24T04:17:14.734Z,1011.8
2022-12-24T04:32:10.791Z,1011.9
2022-12-24T04:47:06.453Z,1011.8
2022-12-24T05:02:02.871Z,1012.7
2022-12-24T05:16:58.891Z,1012.7
2022-12-24T05:25:34.071Z,1012.8
2022-12-24T05:40:30.319Z,1013.1
2022-12-24T05:55:26.271Z,1013.1
2022-12-24T06:10:22.096Z,1013.2
2022-12-24T06:25:19.369Z,1013.3
2022-12-24T06:40:14.458Z,1013.4
2022-12-24T06:55:10.642Z,1013.5
2022-12-24T07:10:07.148Z,1013.7
2022-12-24T07:25:03.300Z,1014
2022-12-24T07:39:59.227Z,1014.3
2022-12-24T07:54:55.661Z,1014.3
2022-12-24T08:09:52.186Z,1014.5
2022-12-24T08:24:48.603Z,1014.6
2022-12-24T08:39:44.409Z,1014.8
2022-12-24T08:54:41.015Z,1014.9
2022-12-24T09:09:38.463Z,1014.9
2022-12-24T09:24:34.249Z,1015.2
2022-12-24T09:39:30.517Z,1015.5
2022-12-24T09:54:27.252Z,1015.4
2022-12-24T10:09:23.172Z,1015.5
2022-12-24T10:24:20.036Z,1015.5
2022-12-24T10:39:16.699Z,1015.5
2022-12-24T10:54:13.439Z,1015.5
2022-12-24T11:09:09.661Z,1015.3
2022-12-24T11:24:05.643Z,1015.4
2022-12-24T11:39:01.905Z,1015.3
2022-12-24T11:53:58.014Z,1015.3
2022-12-24T12:08:54.250Z,1015.3
2022-12-24T12:23:50.593Z,1015.3
2022-12-24T12:38:46.693Z,1015.5
2022-12-24T12:53:42.964Z,1015.4
2022-12-24T13:08:39.696Z,1015.5
2022-12-24T13:23:35.692Z,1015.6
2022-12-24T13:38:31.335Z,1015.7
2022-12-24T13:53:27.730Z,1015.8
2022-12-24T14:08:24.095Z,1016
2022-12-24T14:23:19.608Z,1016.1
2022-12-24T14:38:16.225Z,1016.1
2022-12-24T14:53:18.534Z,1016.1
2022-12-24T15:08:07.421Z,1016.6
2022-12-24T15:23:03.077Z,1016.9
2022-12-24T15:37:59.262Z,1017
2022-12-24T15:53:19.205Z,1017
2022-12-24T16:07:50.791Z,1017.2
2022-12-24T16:22:47.297Z,1017.3
2022-12-24T16:37:42.686Z,1017.4
2022-12-24T16:52:38.466Z,1017.4
2022-12-24T17:07:38.297Z,1017.5
2022-12-24T17:22:30.754Z,1017.8
2022-12-24T17:37:27.153Z,1017.7
2022-12-24T17:52:22.621Z,1017.7
2022-12-24T18:07:18.148Z,1017.9
2022-12-24T18:22:14.178Z,1018.1
2022-12-24T18:37:10.625Z,1018.3
2022-12-24T18:52:06.624Z,1018.1
2022-12-24T19:07:03.018Z,1018
2022-12-24T19:22:00.152Z,1017.8
2022-12-24T19:36:55.943Z,1018.1
2022-12-24T19:51:51.906Z,1018.4
2022-12-24T20:06:47.828Z,1018.1
2022-12-24T20:21:44.095Z,1018.4
2022-12-24T20:36:40.420Z,1018.1
2022-12-24T20:51:36.700Z,1018.2
2022-12-24T21:06:32.545Z,1018
2022-12-24T21:21:28.424Z,1018.3
2022-12-24T21:36:24.009Z,1018.2
2022-12-24T21:51:20.586Z,1018.3
2022-12-24T22:21:13.192Z,1018.2
